Cottonwood, Oklahoma
Current Conditions -  °F | °C
As of 3:35 PM on Wednesday 17 Dec 2014 (Local Time) from KAQR Reporting Station
Thunderstorm Thunderstorm  
Wind Chill: 34°   Ceiling: 5000
Heat Index: 37°   Visibility: 10mi
Dew Point: 36°   Wind: 5mph
Humidity: 93%   Direction: 280°W
Pressure: 30.19"   Gusts: NA
Location:  34.5844°N, 96.2026°W
Report Text: KAQR 172135Z AUTO 28004KT 10SM TS SCT010 OVC050 03/02 A3019 RMK AO2 LTG DSNT NW
Loading
Personal Weather Stations






























Interactive Weather Map New forecast layout! Learn more

10-Day Weather Forecast

Advertisements
Track Severe Weather on mobile